PWSweather.com
Personal Weather Stations
Station Observations
KNVELKO7
Elko, NV 89801

Elko, NV 89801

Lat: 40.963233, Lon: -115.592836

Elevation: 5230

Station Type: WS-2812

High Low Average
Temperature 109.1°F42.8°F 56.7°F13.7°F 81.7°F27.6°F
Dew Point 53.4°F11.9°F 28.3°F-2.1°F 39.1°F3.9°F
Winds 21.0 mph NW33.8 mph NW Calm Calm 4.2 mph 6.8 mph
Wind Gusts 28.0 mph45.1 mph 0.7 mph1.1 mph 6.9 mph11.1 mph
Humidity 40% 11% 24%
Pressure 30.17 in1021.70 in 30.02 in1016.60 in -
Precipitation 0.00 in0.00 in - -
Hour Temp Dew Point Humidity Winds Wind Gusts Pressure Precip Precip Rate Daily Precip Total
12:02 AM 70.9°F21.6°C 32.9°F0.5°C 25% 2.0 mph NNE3.2 kmh NNE 3.8 mph6.1 kmh 30.14 in1020.7 mb 0.00 in0.0 mm 0.00 in0.0 mm 0.00 in0.0 mm
12:07 AM 70.9°F21.6°C 32.9°F0.5°C 25% 2.0 mph NNE3.2 kmh NNE 2.9 mph4.7 kmh 30.14 in1020.7 mb 0.00 in0.0 mm 0.00 in0.0 mm 0.00 in0.0 mm
12:12 AM 70.6°F21.4°C 32.7°F0.4°C 25% 1.7 mph ENE2.7 kmh ENE 2.0 mph3.2 kmh 30.14 in1020.7 mb 0.00 in0.0 mm 0.00 in0.0 mm 0.00 in0.0 mm
12:17 AM 70.2°F21.2°C 32.3°F0.2°C 25% 2.3 mph SSE3.7 kmh SSE 2.5 mph4.0 kmh 30.13 in1020.3 mb 0.00 in0.0 mm 0.00 in0.0 mm 0.00 in0.0 mm
12:22 AM 69.8°F21.0°C 32.0°F0.0°C 25% 2.2 mph SSW3.5 kmh SSW 2.5 mph4.0 kmh 30.14 in1020.7 mb 0.00 in0.0 mm 0.00 in0.0 mm 0.00 in0.0 mm
12:27 AM 69.5°F20.8°C 32.8°F0.4°C 26% 1.8 mph S2.9 kmh S 2.9 mph4.7 kmh 30.14 in1020.7 mb 0.00 in0.0 mm 0.00 in0.0 mm 0.00 in0.0 mm
12:32 AM 68.9°F20.5°C 32.3°F0.2°C 26% 1.5 mph SSW2.4 kmh SSW 2.9 mph4.7 kmh 30.13 in1020.3 mb 0.00 in0.0 mm 0.00 in0.0 mm 0.00 in0.0 mm
12:37 AM 68.6°F20.3°C 32.0°F0.0°C 26% 1.6 mph 2.6 kmh 2.7 mph4.3 kmh 30.14 in1020.7 mb 0.00 in0.0 mm 0.00 in0.0 mm 0.00 in0.0 mm
12:42 AM 68.4°F20.2°C 30.8°F-0.7°C 25% 1.2 mph NE1.9 kmh NE 2.7 mph4.3 kmh 30.13 in1020.3 mb 0.00 in0.0 mm 0.00 in0.0 mm 0.00 in0.0 mm
12:47 AM 68.4°F20.2°C 31.8°F-0.1°C 26% 1.8 mph NNE2.9 kmh NNE 2.7 mph4.3 kmh 30.14 in1020.7 mb 0.00 in0.0 mm 0.00 in0.0 mm 0.00 in0.0 mm
12:52 AM 68.2°F20.1°C 31.7°F-0.2°C 26% 1.0 mph 1.6 kmh 2.2 mph3.5 kmh 30.14 in1020.7 mb 0.00 in0.0 mm 0.00 in0.0 mm 0.00 in0.0 mm
12:57 AM 68.2°F20.1°C 31.7°F-0.2°C 26% 2.3 mph 3.7 kmh 2.7 mph4.3 kmh 30.13 in1020.3 mb 0.00 in0.0 mm 0.00 in0.0 mm 0.00 in0.0 mm
01:03 AM 68.2°F20.1°C 31.7°F-0.2°C 26% 2.3 mph 3.7 kmh 2.7 mph4.3 kmh 30.14 in1020.7 mb 0.00 in0.0 mm 0.00 in0.0 mm 0.00 in0.0 mm
01:08 AM 67.9°F19.9°C 31.3°F-0.4°C 26% 1.9 mph 3.1 kmh 2.7 mph4.3 kmh 30.14 in1020.7 mb 0.00 in0.0 mm 0.00 in0.0 mm 0.00 in0.0 mm
01:12 AM 67.5°F19.7°C 31.1°F-0.5°C 26% 1.8 mph 2.9 kmh 2.7 mph4.3 kmh 30.14 in1020.7 mb 0.00 in0.0 mm 0.00 in0.0 mm 0.00 in0.0 mm
01:17 AM 67.0°F19.4°C 30.6°F-0.8°C 26% 1.3 mph 2.1 kmh 2.5 mph4.0 kmh 30.14 in1020.7 mb 0.00 in0.0 mm 0.00 in0.0 mm 0.00 in0.0 mm
01:22 AM 66.6°F19.2°C 30.3°F-0.9°C 26% 2.2 mph N3.5 kmh N 2.9 mph4.7 kmh 30.13 in1020.3 mb 0.00 in0.0 mm 0.00 in0.0 mm 0.00 in0.0 mm
01:27 AM 66.4°F19.1°C 32.1°F0.1°C 28% 1.8 mph NNE2.9 kmh NNE 2.9 mph4.7 kmh 30.13 in1020.3 mb 0.00 in0.0 mm 0.00 in0.0 mm 0.00 in0.0 mm
01:32 AM 66.1°F18.9°C 31.9°F-0.1°C 28% 0.4 mph NE0.6 kmh NE 2.0 mph3.2 kmh 30.13 in1020.3 mb 0.00 in0.0 mm 0.00 in0.0 mm 0.00 in0.0 mm
01:37 AM 65.3°F18.5°C 31.2°F-0.4°C 28% 1.5 mph NNE2.4 kmh NNE 2.2 mph3.5 kmh 30.13 in1020.3 mb 0.00 in0.0 mm 0.00 in0.0 mm 0.00 in0.0 mm
01:42 AM 65.0°F18.3°C 30.9°F-0.6°C 28% 2.0 mph NNE3.2 kmh NNE 2.2 mph3.5 kmh 30.13 in1020.3 mb 0.00 in0.0 mm 0.00 in0.0 mm 0.00 in0.0 mm
01:47 AM 64.8°F18.2°C 31.8°F-0.1°C 29% 0.8 mph NNE1.3 kmh NNE 2.2 mph3.5 kmh 30.13 in1020.3 mb 0.00 in0.0 mm 0.00 in0.0 mm 0.00 in0.0 mm
01:52 AM 64.4°F18.0°C 30.4°F-0.9°C 28% 1.9 mph NNE3.1 kmh NNE 2.2 mph3.5 kmh 30.13 in1020.3 mb 0.00 in0.0 mm 0.00 in0.0 mm 0.00 in0.0 mm
01:57 AM 64.1°F17.8°C 31.1°F-0.5°C 29% 3.2 mph 5.1 kmh 3.8 mph6.1 kmh 30.13 in1020.3 mb 0.00 in0.0 mm 0.00 in0.0 mm 0.00 in0.0 mm
02:03 AM 64.1°F17.8°C 30.1°F-1.1°C 28% 2.3 mph N3.7 kmh N 4.3 mph6.9 kmh 30.13 in1020.3 mb 0.00 in0.0 mm 0.00 in0.0 mm 0.00 in0.0 mm
02:08 AM 63.9°F17.7°C 30.0°F-1.1°C 28% 1.7 mph NNE2.7 kmh NNE 4.3 mph6.9 kmh 30.13 in1020.3 mb 0.00 in0.0 mm 0.00 in0.0 mm 0.00 in0.0 mm
02:13 AM 63.5°F17.5°C 29.6°F-1.3°C 28% 2.5 mph N4.0 kmh N 2.9 mph4.7 kmh 30.13 in1020.3 mb 0.00 in0.0 mm 0.00 in0.0 mm 0.00 in0.0 mm
02:18 AM 63.2°F17.3°C 29.4°F-1.4°C 28% 1.9 mph 3.1 kmh 3.1 mph5.0 kmh 30.13 in1020.3 mb 0.00 in0.0 mm 0.00 in0.0 mm 0.00 in0.0 mm
02:23 AM 63.0°F17.2°C 30.2°F-1.0°C 29% 2.3 mph 3.7 kmh 3.1 mph5.0 kmh 30.13 in1020.3 mb 0.00 in0.0 mm 0.00 in0.0 mm 0.00 in0.0 mm
02:28 AM 62.8°F17.1°C 30.0°F-1.1°C 29% 2.7 mph 4.3 kmh 2.9 mph4.7 kmh 30.13 in1020.3 mb 0.00 in0.0 mm 0.00 in0.0 mm 0.00 in0.0 mm
02:33 AM 62.8°F17.1°C 30.0°F-1.1°C 29% 1.9 mph 3.1 kmh 3.4 mph5.5 kmh 30.13 in1020.3 mb 0.00 in0.0 mm 0.00 in0.0 mm 0.00 in0.0 mm
02:37 AM 62.6°F17.0°C 29.8°F-1.2°C 29% 1.2 mph 1.9 kmh 3.4 mph5.5 kmh 30.13 in1020.3 mb 0.00 in0.0 mm 0.00 in0.0 mm 0.00 in0.0 mm
02:42 AM 62.3°F16.8°C 30.4°F-0.9°C 30% 1.0 mph NE1.6 kmh NE 1.8 mph2.9 kmh 30.13 in1020.3 mb 0.00 in0.0 mm 0.00 in0.0 mm 0.00 in0.0 mm
02:47 AM 61.9°F16.6°C 30.2°F-1.0°C 30% 2.3 mph NE3.7 kmh NE 2.5 mph4.0 kmh 30.13 in1020.3 mb 0.00 in0.0 mm 0.00 in0.0 mm 0.00 in0.0 mm
02:52 AM 61.9°F16.6°C 30.2°F-1.0°C 30% 2.2 mph NNE3.5 kmh NNE 2.7 mph4.3 kmh 30.13 in1020.3 mb 0.00 in0.0 mm 0.00 in0.0 mm 0.00 in0.0 mm
02:57 AM 61.9°F16.6°C 30.9°F-0.6°C 31% 3.3 mph NNE5.3 kmh NNE 4.0 mph6.4 kmh 30.13 in1020.3 mb 0.00 in0.0 mm 0.00 in0.0 mm 0.00 in0.0 mm
03:03 AM 62.1°F16.7°C 31.1°F-0.5°C 31% 4.4 mph NE7.1 kmh NE 5.4 mph8.7 kmh 30.13 in1020.3 mb 0.00 in0.0 mm 0.00 in0.0 mm 0.00 in0.0 mm
03:08 AM 62.5°F16.9°C 31.3°F-0.4°C 31% 2.8 mph NE4.5 kmh NE 5.4 mph8.7 kmh 30.13 in1020.3 mb 0.00 in0.0 mm 0.00 in0.0 mm 0.00 in0.0 mm
03:13 AM 62.6°F17.0°C 31.5°F-0.3°C 31% 1.6 mph NNE2.6 kmh NNE 4.7 mph7.6 kmh 30.13 in1020.3 mb 0.00 in0.0 mm 0.00 in0.0 mm 0.00 in0.0 mm
03:18 AM 62.3°F16.8°C 31.1°F-0.5°C 31% 1.0 mph NNE1.6 kmh NNE 3.6 mph5.8 kmh 30.13 in1020.3 mb 0.00 in0.0 mm 0.00 in0.0 mm 0.00 in0.0 mm
03:23 AM 62.1°F16.7°C 31.1°F-0.5°C 31% 2.5 mph ENE4.0 kmh ENE 2.5 mph4.0 kmh 30.13 in1020.3 mb 0.00 in0.0 mm 0.00 in0.0 mm 0.00 in0.0 mm
03:28 AM 61.7°F16.5°C 30.7°F-0.7°C 31% 0.9 mph ENE1.4 kmh ENE 2.5 mph4.0 kmh 30.13 in1020.3 mb 0.00 in0.0 mm 0.00 in0.0 mm 0.00 in0.0 mm
03:33 AM 61.2°F16.2°C 30.3°F-0.9°C 31% 2.5 mph SSE4.0 kmh SSE 3.4 mph5.5 kmh 30.13 in1020.3 mb 0.00 in0.0 mm 0.00 in0.0 mm 0.00 in0.0 mm
03:38 AM 60.5°F15.8°C 29.6°F-1.3°C 31% 2.2 mph SSW3.5 kmh SSW 3.8 mph6.1 kmh 30.13 in1020.3 mb 0.00 in0.0 mm 0.00 in0.0 mm 0.00 in0.0 mm
03:43 AM 59.8°F15.4°C 29.7°F-1.3°C 32% 1.0 mph SSW1.6 kmh SSW 3.8 mph6.1 kmh 30.13 in1020.3 mb 0.00 in0.0 mm 0.00 in0.0 mm 0.00 in0.0 mm
03:48 AM 58.9°F14.9°C 28.3°F-2.1°C 31% 2.3 mph 3.7 kmh 3.6 mph5.8 kmh 30.13 in1020.3 mb 0.00 in0.0 mm 0.00 in0.0 mm 0.00 in0.0 mm
03:53 AM 58.3°F14.6°C 29.2°F-1.6°C 33% 1.0 mph NE1.6 kmh NE 3.6 mph5.8 kmh 30.13 in1020.3 mb 0.00 in0.0 mm 0.00 in0.0 mm 0.00 in0.0 mm
03:58 AM 58.3°F14.6°C 29.2°F-1.6°C 33% 1.1 mph 1.8 kmh 2.2 mph3.5 kmh 30.13 in1020.3 mb 0.00 in0.0 mm 0.00 in0.0 mm 0.00 in0.0 mm
04:03 AM 58.7°F14.8°C 29.5°F-1.4°C 33% 1.5 mph 2.4 kmh 1.6 mph2.6 kmh 30.13 in1020.3 mb 0.00 in0.0 mm 0.00 in0.0 mm 0.00 in0.0 mm
04:08 AM 59.0°F15.0°C 29.8°F-1.2°C 33% 1.0 mph 1.6 kmh 1.6 mph2.6 kmh 30.13 in1020.3 mb 0.00 in0.0 mm 0.00 in0.0 mm 0.00 in0.0 mm
04:13 AM 59.4°F15.2°C 30.9°F-0.6°C 34% 1.5 mph NE2.4 kmh NE 1.8 mph2.9 kmh 30.13 in1020.3 mb 0.00 in0.0 mm 0.00 in0.0 mm 0.00 in0.0 mm
04:18 AM 59.8°F15.4°C 31.2°F-0.4°C 34% 1.3 mph ENE2.1 kmh ENE 1.8 mph2.9 kmh 30.14 in1020.7 mb 0.00 in0.0 mm 0.00 in0.0 mm 0.00 in0.0 mm
04:23 AM 59.4°F15.2°C 32.2°F0.1°C 36% 4.3 mph ENE6.9 kmh ENE 4.7 mph7.6 kmh 30.14 in1020.7 mb 0.00 in0.0 mm 0.00 in0.0 mm 0.00 in0.0 mm
04:28 AM 59.4°F15.2°C 32.2°F0.1°C 36% 4.1 mph ENE6.6 kmh ENE 4.7 mph7.6 kmh 30.14 in1020.7 mb 0.00 in0.0 mm 0.00 in0.0 mm 0.00 in0.0 mm
04:33 AM 59.6°F15.3°C 33.1°F0.6°C 37% 5.6 mph E9.0 kmh E 5.6 mph9.0 kmh 30.14 in1020.7 mb 0.00 in0.0 mm 0.00 in0.0 mm 0.00 in0.0 mm
04:38 AM 59.4°F15.2°C 32.9°F0.5°C 37% 4.7 mph E7.6 kmh E 5.6 mph9.0 kmh 30.14 in1020.7 mb 0.00 in0.0 mm 0.00 in0.0 mm 0.00 in0.0 mm
04:43 AM 59.4°F15.2°C 32.9°F0.5°C 37% 4.9 mph E7.9 kmh E 4.9 mph7.9 kmh 30.14 in1020.7 mb 0.00 in0.0 mm 0.00 in0.0 mm 0.00 in0.0 mm
04:48 AM 59.2°F15.1°C 32.1°F0.1°C 36% 5.7 mph E9.2 kmh E 6.9 mph11.1 kmh 30.14 in1020.7 mb 0.00 in0.0 mm 0.00 in0.0 mm 0.00 in0.0 mm
04:53 AM 58.9°F14.9°C 32.5°F0.3°C 37% 6.2 mph E10.0 kmh E 6.9 mph11.1 kmh 30.14 in1020.7 mb 0.00 in0.0 mm 0.00 in0.0 mm 0.00 in0.0 mm
04:58 AM 58.7°F14.8°C 33.0°F0.6°C 38% 5.8 mph E9.3 kmh E 6.9 mph11.1 kmh 30.14 in1020.7 mb 0.00 in0.0 mm 0.00 in0.0 mm 0.00 in0.0 mm
05:03 AM 58.7°F14.8°C 33.0°F0.6°C 38% 2.9 mph NE4.7 kmh NE 6.3 mph10.1 kmh 30.15 in1021.0 mb 0.00 in0.0 mm 0.00 in0.0 mm 0.00 in0.0 mm
05:08 AM 58.5°F14.7°C 32.1°F0.1°C 37% 2.0 mph NNW3.2 kmh NNW 5.6 mph9.0 kmh 30.14 in1020.7 mb 0.00 in0.0 mm 0.00 in0.0 mm 0.00 in0.0 mm
05:13 AM 58.3°F14.6°C 32.0°F0.0°C 37% 3.3 mph ENE5.3 kmh ENE 3.6 mph5.8 kmh 30.14 in1020.7 mb 0.00 in0.0 mm 0.00 in0.0 mm 0.00 in0.0 mm
05:18 AM 58.3°F14.6°C 32.0°F0.0°C 37% 2.2 mph 3.5 kmh 3.6 mph5.8 kmh 30.15 in1021.0 mb 0.00 in0.0 mm 0.00 in0.0 mm 0.00 in0.0 mm
05:23 AM 58.0°F14.4°C 31.7°F-0.2°C 37% 2.3 mph 3.7 kmh 2.9 mph4.7 kmh 30.15 in1021.0 mb 0.00 in0.0 mm 0.00 in0.0 mm 0.00 in0.0 mm
05:28 AM 57.8°F14.3°C 31.5°F-0.3°C 37% 2.5 mph 4.0 kmh 2.7 mph4.3 kmh 30.15 in1021.0 mb 0.00 in0.0 mm 0.00 in0.0 mm 0.00 in0.0 mm
05:33 AM 57.8°F14.3°C 31.5°F-0.3°C 37% 1.3 mph E2.1 kmh E 3.4 mph5.5 kmh 30.15 in1021.0 mb 0.00 in0.0 mm 0.00 in0.0 mm 0.00 in0.0 mm
05:38 AM 57.6°F14.2°C 31.3°F-0.4°C 37% Calm Calm 3.4 mph5.5 kmh 30.15 in1021.0 mb 0.00 in0.0 mm 0.00 in0.0 mm 0.00 in0.0 mm
05:43 AM 57.2°F14.0°C 31.7°F-0.2°C 38% 1.5 mph ESE2.4 kmh ESE 1.8 mph2.9 kmh 30.15 in1021.0 mb 0.00 in0.0 mm 0.00 in0.0 mm 0.00 in0.0 mm
05:48 AM 56.9°F13.8°C 31.4°F-0.3°C 38% 1.9 mph NNW3.1 kmh NNW 2.5 mph4.0 kmh 30.15 in1021.0 mb 0.00 in0.0 mm 0.00 in0.0 mm 0.00 in0.0 mm
05:53 AM 56.7°F13.7°C 31.2°F-0.4°C 38% 2.0 mph 3.2 kmh 3.1 mph5.0 kmh 30.15 in1021.0 mb 0.00 in0.0 mm 0.00 in0.0 mm 0.00 in0.0 mm
05:58 AM 56.7°F13.7°C 31.2°F-0.4°C 38% 2.2 mph NNE3.5 kmh NNE 3.1 mph5.0 kmh 30.15 in1021.0 mb 0.00 in0.0 mm 0.00 in0.0 mm 0.00 in0.0 mm
06:04 AM 56.9°F13.8°C 31.4°F-0.3°C 38% 2.6 mph N4.2 kmh N 3.4 mph5.5 kmh 30.15 in1021.0 mb 0.00 in0.0 mm 0.00 in0.0 mm 0.00 in0.0 mm
06:09 AM 57.1°F13.9°C 31.6°F-0.2°C 38% 5.0 mph 8.0 kmh 6.0 mph9.7 kmh 30.16 in1021.3 mb 0.00 in0.0 mm 0.00 in0.0 mm 0.00 in0.0 mm
06:14 AM 57.2°F14.0°C 31.7°F-0.2°C 38% 5.1 mph 8.2 kmh 6.0 mph9.7 kmh 30.16 in1021.3 mb 0.00 in0.0 mm 0.00 in0.0 mm 0.00 in0.0 mm
06:19 AM 57.1°F13.9°C 31.6°F-0.2°C 38% 3.0 mph 4.8 kmh 5.4 mph8.7 kmh 30.16 in1021.3 mb 0.00 in0.0 mm 0.00 in0.0 mm 0.00 in0.0 mm
06:23 AM 57.2°F14.0°C 31.7°F-0.2°C 38% 2.7 mph NE4.3 kmh NE 5.4 mph8.7 kmh 30.16 in1021.3 mb 0.00 in0.0 mm 0.00 in0.0 mm 0.00 in0.0 mm
06:28 AM 58.0°F14.4°C 33.0°F0.6°C 39% 3.2 mph 5.1 kmh 4.0 mph6.4 kmh 30.16 in1021.3 mb 0.00 in0.0 mm 0.00 in0.0 mm 0.00 in0.0 mm
06:33 AM 58.3°F14.6°C 33.4°F0.8°C 39% 1.1 mph 1.8 kmh 4.0 mph6.4 kmh 30.16 in1021.3 mb 0.00 in0.0 mm 0.00 in0.0 mm 0.00 in0.0 mm
06:38 AM 59.0°F15.0°C 33.3°F0.7°C 38% 1.3 mph 2.1 kmh 1.8 mph2.9 kmh 30.16 in1021.3 mb 0.00 in0.0 mm 0.00 in0.0 mm 0.00 in0.0 mm
06:43 AM 59.6°F15.3°C 33.9°F1.1°C 38% 1.2 mph 1.9 kmh 1.8 mph2.9 kmh 30.16 in1021.3 mb 0.00 in0.0 mm 0.00 in0.0 mm 0.00 in0.0 mm
06:48 AM 60.5°F15.8°C 34.6°F1.4°C 38% 1.6 mph SSE2.6 kmh SSE 2.7 mph4.3 kmh 30.16 in1021.3 mb 0.00 in0.0 mm 0.00 in0.0 mm 0.00 in0.0 mm
06:53 AM 61.4°F16.3°C 36.8°F2.7°C 40% 2.2 mph SSE3.5 kmh SSE 3.4 mph5.5 kmh 30.16 in1021.3 mb 0.00 in0.0 mm 0.00 in0.0 mm 0.00 in0.0 mm
06:58 AM 62.1°F16.7°C 37.5°F3.1°C 40% 1.5 mph S2.4 kmh S 3.4 mph5.5 kmh 30.16 in1021.3 mb 0.00 in0.0 mm 0.00 in0.0 mm 0.00 in0.0 mm
07:04 AM 62.5°F16.9°C 37.8°F3.2°C 40% 0.7 mph S1.1 kmh S 2.0 mph3.2 kmh 30.16 in1021.3 mb 0.00 in0.0 mm 0.00 in0.0 mm 0.00 in0.0 mm
07:09 AM 63.2°F17.3°C 37.7°F3.2°C 39% Calm Calm 1.1 mph1.8 kmh 30.16 in1021.3 mb 0.00 in0.0 mm 0.00 in0.0 mm 0.00 in0.0 mm
07:14 AM 63.9°F17.7°C 38.4°F3.6°C 39% Calm Calm 0.7 mph1.1 kmh 30.17 in1021.7 mb 0.00 in0.0 mm 0.00 in0.0 mm 0.00 in0.0 mm
07:19 AM 64.6°F18.1°C 39.1°F3.9°C 39% 1.1 mph S1.8 kmh S 1.3 mph2.1 kmh 30.16 in1021.3 mb 0.00 in0.0 mm 0.00 in0.0 mm 0.00 in0.0 mm
07:24 AM 65.5°F18.6°C 39.9°F4.4°C 39% 2.3 mph SE3.7 kmh SE 2.9 mph4.7 kmh 30.16 in1021.3 mb 0.00 in0.0 mm 0.00 in0.0 mm 0.00 in0.0 mm
07:29 AM 66.1°F18.9°C 40.3°F4.6°C 39% 3.3 mph SE5.3 kmh SE 3.8 mph6.1 kmh 30.16 in1021.3 mb 0.00 in0.0 mm 0.00 in0.0 mm 0.00 in0.0 mm
07:34 AM 66.6°F19.2°C 40.9°F4.9°C 39% 3.8 mph ESE6.1 kmh ESE 4.7 mph7.6 kmh 30.17 in1021.7 mb 0.00 in0.0 mm 0.00 in0.0 mm 0.00 in0.0 mm
07:39 AM 67.1°F19.5°C 41.3°F5.2°C 39% 3.1 mph ESE5.0 kmh ESE 4.7 mph7.6 kmh 30.16 in1021.3 mb 0.00 in0.0 mm 0.00 in0.0 mm 0.00 in0.0 mm
07:44 AM 67.9°F19.9°C 41.9°F5.5°C 39% 2.0 mph ESE3.2 kmh ESE 4.0 mph6.4 kmh 30.16 in1021.3 mb 0.00 in0.0 mm 0.00 in0.0 mm 0.00 in0.0 mm
07:49 AM 68.6°F20.3°C 42.6°F5.9°C 39% 1.6 mph ESE2.6 kmh ESE 3.6 mph5.8 kmh 30.16 in1021.3 mb 0.00 in0.0 mm 0.00 in0.0 mm 0.00 in0.0 mm
07:53 AM 69.5°F20.8°C 42.7°F5.9°C 38% 1.5 mph ESE2.4 kmh ESE 3.1 mph5.0 kmh 30.16 in1021.3 mb 0.00 in0.0 mm 0.00 in0.0 mm 0.00 in0.0 mm
07:58 AM 70.4°F21.3°C 44.2°F6.8°C 39% 2.3 mph SE3.7 kmh SE 2.5 mph4.0 kmh 30.16 in1021.3 mb 0.00 in0.0 mm 0.00 in0.0 mm 0.00 in0.0 mm
08:04 AM 71.6°F22.0°C 44.7°F7.1°C 38% 1.8 mph SE2.9 kmh SE 2.5 mph4.0 kmh 30.16 in1021.3 mb 0.00 in0.0 mm 0.00 in0.0 mm 0.00 in0.0 mm
08:09 AM 72.7°F22.6°C 44.8°F7.1°C 37% 2.3 mph ESE3.7 kmh ESE 2.9 mph4.7 kmh 30.16 in1021.3 mb 0.00 in0.0 mm 0.00 in0.0 mm 0.00 in0.0 mm
08:14 AM 73.8°F23.2°C 44.3°F6.8°C 35% 2.8 mph SE4.5 kmh SE 3.8 mph6.1 kmh 30.16 in1021.3 mb 0.00 in0.0 mm 0.00 in0.0 mm 0.00 in0.0 mm
08:19 AM 74.5°F23.6°C 44.9°F7.2°C 35% 4.3 mph SE6.9 kmh SE 5.4 mph8.7 kmh 30.16 in1021.3 mb 0.00 in0.0 mm 0.00 in0.0 mm 0.00 in0.0 mm
08:24 AM 75.6°F24.2°C 45.1°F7.3°C 34% 2.6 mph SE4.2 kmh SE 5.4 mph8.7 kmh 30.16 in1021.3 mb 0.00 in0.0 mm 0.00 in0.0 mm 0.00 in0.0 mm
08:29 AM 76.5°F24.7°C 45.2°F7.3°C 33% 1.9 mph ESE3.1 kmh ESE 3.8 mph6.1 kmh 30.16 in1021.3 mb 0.00 in0.0 mm 0.00 in0.0 mm 0.00 in0.0 mm
08:34 AM 77.4°F25.2°C 45.2°F7.3°C 32% 1.5 mph ESE2.4 kmh ESE 3.8 mph6.1 kmh 30.16 in1021.3 mb 0.00 in0.0 mm 0.00 in0.0 mm 0.00 in0.0 mm
08:39 AM 78.3°F25.7°C 45.9°F7.7°C 32% 4.0 mph E6.4 kmh E 4.5 mph7.2 kmh 30.16 in1021.3 mb 0.00 in0.0 mm 0.00 in0.0 mm 0.00 in0.0 mm
08:44 AM 79.2°F26.2°C 45.9°F7.7°C 31% 2.6 mph ESE4.2 kmh ESE 4.5 mph7.2 kmh 30.16 in1021.3 mb 0.00 in0.0 mm 0.00 in0.0 mm 0.00 in0.0 mm
08:49 AM 79.9°F26.6°C 45.8°F7.7°C 30% 3.0 mph SE4.8 kmh SE 4.7 mph7.6 kmh 30.16 in1021.3 mb 0.00 in0.0 mm 0.00 in0.0 mm 0.00 in0.0 mm
08:54 AM 80.6°F27.0°C 46.4°F8.0°C 30% 3.2 mph ESE5.1 kmh ESE 4.7 mph7.6 kmh 30.16 in1021.3 mb 0.00 in0.0 mm 0.00 in0.0 mm 0.00 in0.0 mm
08:59 AM 81.4°F27.4°C 46.0°F7.8°C 29% 2.7 mph E4.3 kmh E 4.0 mph6.4 kmh 30.16 in1021.3 mb 0.00 in0.0 mm 0.00 in0.0 mm 0.00 in0.0 mm
09:04 AM 82.1°F27.8°C 45.6°F7.6°C 28% 2.5 mph NE4.0 kmh NE 4.0 mph6.4 kmh 30.15 in1021.0 mb 0.00 in0.0 mm 0.00 in0.0 mm 0.00 in0.0 mm
09:09 AM 82.8°F28.2°C 42.9°F6.1°C 25% 3.2 mph NNW5.1 kmh NNW 3.6 mph5.8 kmh 30.15 in1021.0 mb 0.00 in0.0 mm 0.00 in0.0 mm 0.00 in0.0 mm
09:14 AM 83.2°F28.4°C 43.3°F6.3°C 25% 3.2 mph 5.1 kmh 3.6 mph5.8 kmh 30.15 in1021.0 mb 0.00 in0.0 mm 0.00 in0.0 mm 0.00 in0.0 mm
09:19 AM 83.5°F28.6°C 43.6°F6.4°C 25% 2.3 mph SSE3.7 kmh SSE 3.6 mph5.8 kmh 30.15 in1021.0 mb 0.00 in0.0 mm 0.00 in0.0 mm 0.00 in0.0 mm
09:24 AM 84.8°F29.3°C 44.6°F7.0°C 25% 2.0 mph ENE3.2 kmh ENE 4.5 mph7.2 kmh 30.15 in1021.0 mb 0.00 in0.0 mm 0.00 in0.0 mm 0.00 in0.0 mm
09:29 AM 85.7°F29.8°C 43.3°F6.3°C 23% 2.5 mph NNW4.0 kmh NNW 4.9 mph7.9 kmh 30.15 in1021.0 mb 0.00 in0.0 mm 0.00 in0.0 mm 0.00 in0.0 mm
09:34 AM 86.2°F30.1°C 43.8°F6.6°C 23% 4.8 mph E7.7 kmh E 6.0 mph9.7 kmh 30.15 in1021.0 mb 0.00 in0.0 mm 0.00 in0.0 mm 0.00 in0.0 mm
09:39 AM 86.8°F30.4°C 44.2°F6.8°C 23% 3.8 mph NNE6.1 kmh NNE 6.0 mph9.7 kmh 30.15 in1021.0 mb 0.00 in0.0 mm 0.00 in0.0 mm 0.00 in0.0 mm
09:44 AM 87.5°F30.8°C 44.8°F7.1°C 23% 3.1 mph SE5.0 kmh SE 5.8 mph9.3 kmh 30.15 in1021.0 mb 0.00 in0.0 mm 0.00 in0.0 mm 0.00 in0.0 mm
09:49 AM 88.7°F31.5°C 45.9°F7.7°C 23% 1.5 mph SE2.4 kmh SE 4.7 mph7.6 kmh 30.15 in1021.0 mb 0.00 in0.0 mm 0.00 in0.0 mm 0.00 in0.0 mm
09:54 AM 89.5°F31.9°C 45.4°F7.4°C 22% 2.2 mph NE3.5 kmh NE 7.2 mph11.6 kmh 30.15 in1021.0 mb 0.00 in0.0 mm 0.00 in0.0 mm 0.00 in0.0 mm
10:00 AM 90.4°F32.4°C 46.2°F7.9°C 22% 3.3 mph SE5.3 kmh SE 7.2 mph11.6 kmh 30.15 in1021.0 mb 0.00 in0.0 mm 0.00 in0.0 mm 0.00 in0.0 mm
10:05 AM 90.4°F32.4°C 42.2°F5.7°C 19% 3.1 mph N5.0 kmh N 7.2 mph11.6 kmh 30.15 in1021.0 mb 0.00 in0.0 mm 0.00 in0.0 mm 0.00 in0.0 mm
10:10 AM 90.4°F32.4°C 45.0°F7.2°C 21% 4.9 mph NE7.9 kmh NE 7.2 mph11.6 kmh 30.15 in1021.0 mb 0.00 in0.0 mm 0.00 in0.0 mm 0.00 in0.0 mm
10:15 AM 91.1°F32.8°C 45.6°F7.6°C 21% 1.1 mph SE1.8 kmh SE 5.8 mph9.3 kmh 30.15 in1021.0 mb 0.00 in0.0 mm 0.00 in0.0 mm 0.00 in0.0 mm
10:19 AM 91.8°F33.2°C 46.2°F7.9°C 21% 6.7 mph E10.8 kmh E 6.9 mph11.1 kmh 30.15 in1021.0 mb 0.00 in0.0 mm 0.00 in0.0 mm 0.00 in0.0 mm
10:24 AM 92.2°F33.4°C 46.5°F8.1°C 21% 4.7 mph ENE7.6 kmh ENE 6.9 mph11.1 kmh 30.14 in1020.7 mb 0.00 in0.0 mm 0.00 in0.0 mm 0.00 in0.0 mm
10:29 AM 92.5°F33.6°C 43.9°F6.6°C 19% 2.9 mph N4.7 kmh N 6.5 mph10.5 kmh 30.14 in1020.7 mb 0.00 in0.0 mm 0.00 in0.0 mm 0.00 in0.0 mm
10:34 AM 92.9°F33.8°C 42.5°F5.8°C 18% 4.3 mph NE6.9 kmh NE 5.1 mph8.2 kmh 30.14 in1020.7 mb 0.00 in0.0 mm 0.00 in0.0 mm 0.00 in0.0 mm
10:39 AM 93.1°F33.9°C 44.4°F6.9°C 19% 3.4 mph SE5.5 kmh SE 4.7 mph7.6 kmh 30.14 in1020.7 mb 0.00 in0.0 mm 0.00 in0.0 mm 0.00 in0.0 mm
10:44 AM 92.9°F33.8°C 40.7°F4.8°C 17% 3.0 mph ENE4.8 kmh ENE 11.2 mph18.0 kmh 30.14 in1020.7 mb 0.00 in0.0 mm 0.00 in0.0 mm 0.00 in0.0 mm
10:49 AM 93.4°F34.1°C 42.8°F6.0°C 18% 3.5 mph NNW5.6 kmh NNW 11.2 mph18.0 kmh 30.14 in1020.7 mb 0.00 in0.0 mm 0.00 in0.0 mm 0.00 in0.0 mm
10:54 AM 94.1°F34.5°C 41.7°F5.4°C 17% 6.9 mph NE11.1 kmh NE 9.2 mph14.8 kmh 30.13 in1020.3 mb 0.00 in0.0 mm 0.00 in0.0 mm 0.00 in0.0 mm
11:00 AM 94.5°F34.7°C 43.7°F6.5°C 18% 3.6 mph NE5.8 kmh NE 9.2 mph14.8 kmh 30.13 in1020.3 mb 0.00 in0.0 mm 0.00 in0.0 mm 0.00 in0.0 mm
11:05 AM 94.7°F34.8°C 42.1°F5.6°C 17% 0.9 mph ESE1.4 kmh ESE 7.4 mph11.9 kmh 30.13 in1020.3 mb 0.00 in0.0 mm 0.00 in0.0 mm 0.00 in0.0 mm
11:10 AM 95.9°F35.5°C 46.7°F8.2°C 19% 3.2 mph ENE5.1 kmh ENE 4.9 mph7.9 kmh 30.13 in1020.3 mb 0.00 in0.0 mm 0.00 in0.0 mm 0.00 in0.0 mm
11:15 AM 96.1°F35.6°C 39.8°F4.3°C 15% 4.3 mph N6.9 kmh N 10.3 mph16.6 kmh 30.13 in1020.3 mb 0.00 in0.0 mm 0.00 in0.0 mm 0.00 in0.0 mm
11:20 AM 95.6°F35.3°C 42.8°F6.0°C 17% 2.9 mph E4.7 kmh E 10.3 mph16.6 kmh 30.13 in1020.3 mb 0.00 in0.0 mm 0.00 in0.0 mm 0.00 in0.0 mm
11:25 AM 96.1°F35.6°C 39.8°F4.3°C 15% 7.1 mph NE11.4 kmh NE 10.1 mph16.3 kmh 30.13 in1020.3 mb 0.00 in0.0 mm 0.00 in0.0 mm 0.00 in0.0 mm
11:30 AM 95.8°F35.4°C 41.2°F5.1°C 16% 1.8 mph W2.9 kmh W 10.1 mph16.3 kmh 30.12 in1020.0 mb 0.00 in0.0 mm 0.00 in0.0 mm 0.00 in0.0 mm
11:35 AM 96.5°F35.8°C 40.1°F4.5°C 15% 5.3 mph NW8.5 kmh NW 7.6 mph12.2 kmh 30.12 in1020.0 mb 0.00 in0.0 mm 0.00 in0.0 mm 0.00 in0.0 mm
11:39 AM 96.3°F35.7°C 39.9°F4.4°C 15% 4.0 mph N6.4 kmh N 7.8 mph12.6 kmh 30.12 in1020.0 mb 0.00 in0.0 mm 0.00 in0.0 mm 0.00 in0.0 mm
11:44 AM 96.8°F36.0°C 43.9°F6.6°C 17% 3.3 mph E5.3 kmh E 7.8 mph12.6 kmh 30.12 in1020.0 mb 0.00 in0.0 mm 0.00 in0.0 mm 0.00 in0.0 mm
11:49 AM 97.7°F36.5°C 41.0°F5.0°C 15% 7.3 mph N11.7 kmh N 8.7 mph14.0 kmh 30.12 in1020.0 mb 0.00 in0.0 mm 0.00 in0.0 mm 0.00 in0.0 mm
11:54 AM 98.1°F36.7°C 48.5°F9.2°C 19% 3.8 mph ESE6.1 kmh ESE 8.7 mph14.0 kmh 30.12 in1020.0 mb 0.00 in0.0 mm 0.00 in0.0 mm 0.00 in0.0 mm
12:00 PM 99.2°F37.3°C 45.8°F7.7°C 17% 3.0 mph ENE4.8 kmh ENE 6.7 mph10.8 kmh 30.12 in1020.0 mb 0.00 in0.0 mm 0.00 in0.0 mm 0.00 in0.0 mm
12:05 PM 100.1°F37.8°C 50.1°F10.1°C 19% 4.3 mph SSW6.9 kmh SSW 6.7 mph10.8 kmh 30.12 in1020.0 mb 0.00 in0.0 mm 0.00 in0.0 mm 0.00 in0.0 mm
12:10 PM 100.8°F38.2°C 50.7°F10.4°C 19% 3.4 mph SSE5.5 kmh SSE 6.3 mph10.1 kmh 30.12 in1020.0 mb 0.00 in0.0 mm 0.00 in0.0 mm 0.00 in0.0 mm
12:15 PM 101.7°F38.7°C 49.6°F9.8°C 18% 2.3 mph S3.7 kmh S 6.3 mph10.1 kmh 30.12 in1020.0 mb 0.00 in0.0 mm 0.00 in0.0 mm 0.00 in0.0 mm
12:20 PM 102.6°F39.2°C 52.1°F11.2°C 19% 4.4 mph SE7.1 kmh SE 6.0 mph9.7 kmh 30.11 in1019.6 mb 0.00 in0.0 mm 0.00 in0.0 mm 0.00 in0.0 mm
12:25 PM 103.0°F39.4°C 50.6°F10.3°C 18% 5.7 mph ESE9.2 kmh ESE 6.9 mph11.1 kmh 30.11 in1019.6 mb 0.00 in0.0 mm 0.00 in0.0 mm 0.00 in0.0 mm
12:30 PM 104.0°F40.0°C 53.3°F11.8°C 19% 3.3 mph SSE5.3 kmh SSE 6.9 mph11.1 kmh 30.11 in1019.6 mb 0.00 in0.0 mm 0.00 in0.0 mm 0.00 in0.0 mm
12:35 PM 103.9°F39.9°C 47.7°F8.7°C 16% 3.1 mph 5.0 kmh 5.4 mph8.7 kmh 30.11 in1019.6 mb 0.00 in0.0 mm 0.00 in0.0 mm 0.00 in0.0 mm
12:40 PM 103.5°F39.7°C 47.3°F8.5°C 16% 1.1 mph NW1.8 kmh NW 3.4 mph5.5 kmh 30.11 in1019.6 mb 0.00 in0.0 mm 0.00 in0.0 mm 0.00 in0.0 mm
12:45 PM 103.7°F39.8°C 49.3°F9.6°C 17% 2.6 mph SSW4.2 kmh SSW 3.8 mph6.1 kmh 30.10 in1019.3 mb 0.00 in0.0 mm 0.00 in0.0 mm 0.00 in0.0 mm
12:50 PM 104.8°F40.4°C 48.3°F9.1°C 16% 0.9 mph NNW1.4 kmh NNW 5.4 mph8.7 kmh 30.10 in1019.3 mb 0.00 in0.0 mm 0.00 in0.0 mm 0.00 in0.0 mm
12:55 PM 103.3°F39.6°C 40.0°F4.4°C 12% 5.9 mph 9.5 kmh 10.5 mph16.9 kmh 30.10 in1019.3 mb 0.00 in0.0 mm 0.00 in0.0 mm 0.00 in0.0 mm
01:00 PM 103.0°F39.4°C 47.0°F8.3°C 16% 5.5 mph S8.9 kmh S 10.5 mph16.9 kmh 30.10 in1019.3 mb 0.00 in0.0 mm 0.00 in0.0 mm 0.00 in0.0 mm
01:05 PM 103.9°F39.9°C 51.3°F10.7°C 18% 5.5 mph S8.9 kmh S 8.5 mph13.7 kmh 30.10 in1019.3 mb 0.00 in0.0 mm 0.00 in0.0 mm 0.00 in0.0 mm
01:10 PM 104.9°F40.5°C 50.3°F10.2°C 17% 2.2 mph SE3.5 kmh SE 8.5 mph13.7 kmh 30.09 in1019.0 mb 0.00 in0.0 mm 0.00 in0.0 mm 0.00 in0.0 mm
01:15 PM 105.8°F41.0°C 51.0°F10.6°C 17% 7.5 mph SW12.1 kmh SW 10.1 mph16.3 kmh 30.09 in1019.0 mb 0.00 in0.0 mm 0.00 in0.0 mm 0.00 in0.0 mm
01:20 PM 106.2°F41.2°C 49.5°F9.7°C 16% 3.3 mph NW5.3 kmh NW 10.1 mph16.3 kmh 30.09 in1019.0 mb 0.00 in0.0 mm 0.00 in0.0 mm 0.00 in0.0 mm
01:25 PM 106.7°F41.5°C 51.8°F11.0°C 17% 3.6 mph SE5.8 kmh SE 5.8 mph9.3 kmh 30.09 in1019.0 mb 0.00 in0.0 mm 0.00 in0.0 mm 0.00 in0.0 mm
01:30 PM 107.5°F41.9°C 52.4°F11.3°C 17% 9.8 mph SW15.8 kmh SW 11.0 mph17.7 kmh 30.09 in1019.0 mb 0.00 in0.0 mm 0.00 in0.0 mm 0.00 in0.0 mm
01:35 PM 107.6°F42.0°C 52.6°F11.4°C 17% 8.7 mph SSE14.0 kmh SSE 11.0 mph17.7 kmh 30.08 in1018.6 mb 0.00 in0.0 mm 0.00 in0.0 mm 0.00 in0.0 mm
01:40 PM 107.6°F42.0°C 50.8°F10.4°C 16% 9.8 mph SSW15.8 kmh SSW 11.4 mph18.3 kmh 30.08 in1018.6 mb 0.00 in0.0 mm 0.00 in0.0 mm 0.00 in0.0 mm
01:45 PM 107.1°F41.7°C 50.2°F10.1°C 16% 6.2 mph S10.0 kmh S 12.8 mph20.6 kmh 30.08 in1018.6 mb 0.00 in0.0 mm 0.00 in0.0 mm 0.00 in0.0 mm
01:50 PM 107.5°F41.9°C 50.6°F10.3°C 16% 1.5 mph S2.4 kmh S 12.8 mph20.6 kmh 30.08 in1018.6 mb 0.00 in0.0 mm 0.00 in0.0 mm 0.00 in0.0 mm
01:55 PM 108.7°F42.6°C 53.4°F11.9°C 17% 5.7 mph ESE9.2 kmh ESE 7.2 mph11.6 kmh 30.07 in1018.3 mb 0.00 in0.0 mm 0.00 in0.0 mm 0.00 in0.0 mm
02:00 PM 108.9°F42.7°C 48.0°F8.9°C 14% 3.8 mph ESE6.1 kmh ESE 7.2 mph11.6 kmh 30.07 in1018.3 mb 0.00 in0.0 mm 0.00 in0.0 mm 0.00 in0.0 mm
02:05 PM 109.1°F42.8°C 48.1°F8.9°C 14% 9.7 mph 15.6 kmh 14.3 mph23.0 kmh 30.07 in1018.3 mb 0.00 in0.0 mm 0.00 in0.0 mm 0.00 in0.0 mm
02:10 PM 106.6°F41.4°C 40.6°F4.8°C 11% 3.4 mph NW5.5 kmh NW 14.3 mph23.0 kmh 30.07 in1018.3 mb 0.00 in0.0 mm 0.00 in0.0 mm 0.00 in0.0 mm
02:15 PM 104.8°F40.4°C 41.0°F5.0°C 12% 7.7 mph SW12.4 kmh SW 11.4 mph18.3 kmh 30.07 in1018.3 mb 0.00 in0.0 mm 0.00 in0.0 mm 0.00 in0.0 mm
02:20 PM 103.7°F39.8°C 40.2°F4.6°C 12% 5.7 mph WSW9.2 kmh WSW 8.5 mph13.7 kmh 30.07 in1018.3 mb 0.00 in0.0 mm 0.00 in0.0 mm 0.00 in0.0 mm
02:25 PM 103.0°F39.4°C 39.7°F4.3°C 12% 6.9 mph WSW11.1 kmh WSW 8.3 mph13.4 kmh 30.07 in1018.3 mb 0.00 in0.0 mm 0.00 in0.0 mm 0.00 in0.0 mm
02:30 PM 102.8°F39.3°C 39.5°F4.2°C 12% 1.5 mph SSW2.4 kmh SSW 8.3 mph13.4 kmh 30.06 in1017.9 mb 0.00 in0.0 mm 0.00 in0.0 mm 0.00 in0.0 mm
02:35 PM 103.9°F39.9°C 44.0°F6.7°C 14% 10.9 mph SW17.5 kmh SW 11.9 mph19.2 kmh 30.06 in1017.9 mb 0.00 in0.0 mm 0.00 in0.0 mm 0.00 in0.0 mm
02:40 PM 103.9°F39.9°C 47.7°F8.7°C 16% 8.1 mph SSW13.0 kmh SSW 11.9 mph19.2 kmh 30.06 in1017.9 mb 0.00 in0.0 mm 0.00 in0.0 mm 0.00 in0.0 mm
02:45 PM 104.0°F40.0°C 44.2°F6.8°C 14% 6.4 mph SW10.3 kmh SW 11.4 mph18.3 kmh 30.06 in1017.9 mb 0.00 in0.0 mm 0.00 in0.0 mm 0.00 in0.0 mm
02:50 PM 104.6°F40.3°C 48.3°F9.1°C 16% 3.1 mph SW5.0 kmh SW 8.5 mph13.7 kmh 30.05 in1017.6 mb 0.00 in0.0 mm 0.00 in0.0 mm 0.00 in0.0 mm
02:55 PM 103.0°F39.4°C 39.7°F4.3°C 12% 6.3 mph NW10.1 kmh NW 13.4 mph21.6 kmh 30.05 in1017.6 mb 0.00 in0.0 mm 0.00 in0.0 mm 0.00 in0.0 mm
03:01 PM 101.3°F38.5°C 38.4°F3.6°C 12% 11.9 mph WSW19.2 kmh WSW 13.4 mph21.6 kmh 30.05 in1017.6 mb 0.00 in0.0 mm 0.00 in0.0 mm 0.00 in0.0 mm
03:06 PM 99.2°F37.3°C 36.8°F2.7°C 12% 16.2 mph NW26.1 kmh NW 21.0 mph33.8 kmh 30.05 in1017.6 mb 0.00 in0.0 mm 0.00 in0.0 mm 0.00 in0.0 mm
03:11 PM 97.7°F36.5°C 35.6°F2.0°C 12% 11.8 mph NW19.0 kmh NW 21.0 mph33.8 kmh 30.05 in1017.6 mb 0.00 in0.0 mm 0.00 in0.0 mm 0.00 in0.0 mm
03:16 PM 96.7°F35.9°C 36.5°F2.5°C 13% 15.4 mph NW24.8 kmh NW 19.9 mph32.0 kmh 30.05 in1017.6 mb 0.00 in0.0 mm 0.00 in0.0 mm 0.00 in0.0 mm
03:21 PM 95.4°F35.2°C 39.2°F4.0°C 15% 20.8 mph NW33.5 kmh NW 25.1 mph40.4 kmh 30.05 in1017.6 mb 0.00 in0.0 mm 0.00 in0.0 mm 0.00 in0.0 mm
03:26 PM 94.7°F34.8°C 38.6°F3.7°C 15% 21.0 mph NW33.8 kmh NW 25.1 mph40.4 kmh 30.06 in1017.9 mb 0.00 in0.0 mm 0.00 in0.0 mm 0.00 in0.0 mm
03:30 PM 93.4°F34.1°C 42.8°F6.0°C 18% 16.5 mph NW26.6 kmh NW 26.6 mph42.8 kmh 30.06 in1017.9 mb 0.00 in0.0 mm 0.00 in0.0 mm 0.00 in0.0 mm
03:35 PM 91.8°F33.2°C 43.4°F6.3°C 19% 15.3 mph NNW24.6 kmh NNW 26.6 mph42.8 kmh 30.05 in1017.6 mb 0.00 in0.0 mm 0.00 in0.0 mm 0.00 in0.0 mm
03:40 PM 90.9°F32.7°C 42.7°F5.9°C 19% 10.9 mph 17.5 kmh 19.2 mph30.9 kmh 30.05 in1017.6 mb 0.00 in0.0 mm 0.00 in0.0 mm 0.00 in0.0 mm
03:45 PM 91.4°F33.0°C 41.3°F5.2°C 18% 9.4 mph N15.1 kmh N 15.2 mph24.5 kmh 30.05 in1017.6 mb 0.00 in0.0 mm 0.00 in0.0 mm 0.00 in0.0 mm
03:50 PM 90.4°F32.4°C 47.3°F8.5°C 23% 8.9 mph WNW14.3 kmh WNW 12.8 mph20.6 kmh 30.06 in1017.9 mb 0.00 in0.0 mm 0.00 in0.0 mm 0.00 in0.0 mm
03:55 PM 89.6°F32.0°C 46.6°F8.1°C 23% 8.1 mph 13.0 kmh 12.8 mph20.6 kmh 30.05 in1017.6 mb 0.00 in0.0 mm 0.00 in0.0 mm 0.00 in0.0 mm
04:01 PM 89.6°F32.0°C 46.6°F8.1°C 23% 3.6 mph NNW5.8 kmh NNW 10.3 mph16.6 kmh 30.05 in1017.6 mb 0.00 in0.0 mm 0.00 in0.0 mm 0.00 in0.0 mm
04:06 PM 90.4°F32.4°C 46.2°F7.9°C 22% 5.5 mph NNE8.9 kmh NNE 6.7 mph10.8 kmh 30.05 in1017.6 mb 0.00 in0.0 mm 0.00 in0.0 mm 0.00 in0.0 mm
04:11 PM 91.3°F32.9°C 46.9°F8.3°C 22% 1.6 mph SE2.6 kmh SE 6.7 mph10.8 kmh 30.05 in1017.6 mb 0.00 in0.0 mm 0.00 in0.0 mm 0.00 in0.0 mm
04:16 PM 92.0°F33.3°C 49.7°F9.8°C 24% 3.7 mph SSW6.0 kmh SSW 4.3 mph6.9 kmh 30.06 in1017.9 mb 0.00 in0.0 mm 0.00 in0.0 mm 0.00 in0.0 mm
04:21 PM 92.7°F33.7°C 49.2°F9.6°C 23% 2.8 mph E4.5 kmh E 4.3 mph6.9 kmh 30.05 in1017.6 mb 0.00 in0.0 mm 0.00 in0.0 mm 0.00 in0.0 mm
04:26 PM 92.7°F33.7°C 44.1°F6.7°C 19% 12.0 mph S19.3 kmh S 14.3 mph23.0 kmh 30.05 in1017.6 mb 0.00 in0.0 mm 0.00 in0.0 mm 0.00 in0.0 mm
04:31 PM 92.9°F33.8°C 42.5°F5.8°C 18% 10.4 mph E16.7 kmh E 14.3 mph23.0 kmh 30.05 in1017.6 mb 0.00 in0.0 mm 0.00 in0.0 mm 0.00 in0.0 mm
04:36 PM 93.6°F34.2°C 43.0°F6.1°C 18% 2.0 mph ENE3.2 kmh ENE 12.3 mph19.8 kmh 30.05 in1017.6 mb 0.00 in0.0 mm 0.00 in0.0 mm 0.00 in0.0 mm
04:41 PM 94.3°F34.6°C 40.1°F4.5°C 16% 7.2 mph NE11.6 kmh NE 8.7 mph14.0 kmh 30.05 in1017.6 mb 0.00 in0.0 mm 0.00 in0.0 mm 0.00 in0.0 mm
04:46 PM 94.3°F34.6°C 38.4°F3.6°C 15% 6.7 mph NE10.8 kmh NE 8.7 mph14.0 kmh 30.05 in1017.6 mb 0.00 in0.0 mm 0.00 in0.0 mm 0.00 in0.0 mm
04:51 PM 94.1°F34.5°C 38.2°F3.4°C 15% 6.9 mph N11.1 kmh N 7.6 mph12.2 kmh 30.05 in1017.6 mb 0.00 in0.0 mm 0.00 in0.0 mm 0.00 in0.0 mm
04:56 PM 94.3°F34.6°C 38.4°F3.6°C 15% 3.5 mph 5.6 kmh 7.6 mph12.2 kmh 30.05 in1017.6 mb 0.00 in0.0 mm 0.00 in0.0 mm 0.00 in0.0 mm
05:01 PM 94.7°F34.8°C 38.6°F3.7°C 15% 0.8 mph ENE1.3 kmh ENE 6.3 mph10.1 kmh 30.05 in1017.6 mb 0.00 in0.0 mm 0.00 in0.0 mm 0.00 in0.0 mm
05:06 PM 95.0°F35.0°C 38.9°F3.8°C 15% 4.6 mph W7.4 kmh W 4.9 mph7.9 kmh 30.05 in1017.6 mb 0.00 in0.0 mm 0.00 in0.0 mm 0.00 in0.0 mm
05:11 PM 94.9°F34.9°C 40.5°F4.7°C 16% 3.2 mph SW5.1 kmh SW 5.1 mph8.2 kmh 30.05 in1017.6 mb 0.00 in0.0 mm 0.00 in0.0 mm 0.00 in0.0 mm
05:16 PM 94.5°F34.7°C 40.2°F4.6°C 16% 3.6 mph SW5.8 kmh SW 5.1 mph8.2 kmh 30.05 in1017.6 mb 0.00 in0.0 mm 0.00 in0.0 mm 0.00 in0.0 mm
05:21 PM 94.3°F34.6°C 40.1°F4.5°C 16% 8.7 mph SSE14.0 kmh SSE 9.8 mph15.8 kmh 30.05 in1017.6 mb 0.00 in0.0 mm 0.00 in0.0 mm 0.00 in0.0 mm
05:26 PM 93.6°F34.2°C 41.2°F5.1°C 17% 14.3 mph SSW23.0 kmh SSW 15.4 mph24.8 kmh 30.05 in1017.6 mb 0.00 in0.0 mm 0.00 in0.0 mm 0.00 in0.0 mm
05:31 PM 92.7°F33.7°C 40.6°F4.8°C 17% 11.7 mph S18.8 kmh S 17.7 mph28.5 kmh 30.05 in1017.6 mb 0.00 in0.0 mm 0.00 in0.0 mm 0.00 in0.0 mm
05:36 PM 92.7°F33.7°C 42.3°F5.7°C 18% 6.5 mph ESE10.5 kmh ESE 17.7 mph28.5 kmh 30.04 in1017.3 mb 0.00 in0.0 mm 0.00 in0.0 mm 0.00 in0.0 mm
05:41 PM 93.6°F34.2°C 43.0°F6.1°C 18% 3.3 mph NE5.3 kmh NE 9.2 mph14.8 kmh 30.03 in1016.9 mb 0.00 in0.0 mm 0.00 in0.0 mm 0.00 in0.0 mm
05:46 PM 94.9°F34.9°C 40.5°F4.7°C 16% 5.3 mph NE8.5 kmh NE 7.6 mph12.2 kmh 30.03 in1016.9 mb 0.00 in0.0 mm 0.00 in0.0 mm 0.00 in0.0 mm
05:51 PM 95.6°F35.3°C 41.1°F5.1°C 16% 6.3 mph ENE10.1 kmh ENE 8.9 mph14.3 kmh 30.03 in1016.9 mb 0.00 in0.0 mm 0.00 in0.0 mm 0.00 in0.0 mm
05:56 PM 96.5°F35.8°C 41.9°F5.5°C 16% 4.6 mph E7.4 kmh E 8.9 mph14.3 kmh 30.03 in1016.9 mb 0.00 in0.0 mm 0.00 in0.0 mm 0.00 in0.0 mm
06:01 PM 97.0°F36.1°C 42.3°F5.7°C 16% 2.1 mph NE3.4 kmh NE 5.6 mph9.0 kmh 30.03 in1016.9 mb 0.00 in0.0 mm 0.00 in0.0 mm 0.00 in0.0 mm
06:06 PM 96.7°F35.9°C 36.5°F2.5°C 13% 6.9 mph NNE11.1 kmh NNE 8.3 mph13.4 kmh 30.02 in1016.6 mb 0.00 in0.0 mm 0.00 in0.0 mm 0.00 in0.0 mm
06:11 PM 96.1°F35.6°C 36.2°F2.3°C 13% 6.1 mph NNE9.8 kmh NNE 9.8 mph15.8 kmh 30.02 in1016.6 mb 0.00 in0.0 mm 0.00 in0.0 mm 0.00 in0.0 mm
06:16 PM 95.9°F35.5°C 36.0°F2.2°C 13% 3.8 mph NNE6.1 kmh NNE 9.8 mph15.8 kmh 30.02 in1016.6 mb 0.00 in0.0 mm 0.00 in0.0 mm 0.00 in0.0 mm
06:21 PM 95.8°F35.4°C 39.4°F4.1°C 15% 4.0 mph E6.4 kmh E 8.1 mph13.0 kmh 30.02 in1016.6 mb 0.00 in0.0 mm 0.00 in0.0 mm 0.00 in0.0 mm
06:26 PM 95.2°F35.1°C 39.1°F3.9°C 15% 4.3 mph NE6.9 kmh NE 5.4 mph8.7 kmh 30.02 in1016.6 mb 0.00 in0.0 mm 0.00 in0.0 mm 0.00 in0.0 mm
06:31 PM 94.7°F34.8°C 38.6°F3.7°C 15% 4.3 mph NNE6.9 kmh NNE 5.4 mph8.7 kmh 30.02 in1016.6 mb 0.00 in0.0 mm 0.00 in0.0 mm 0.00 in0.0 mm
06:36 PM 94.1°F34.5°C 38.2°F3.4°C 15% 3.9 mph ENE6.3 kmh ENE 5.1 mph8.2 kmh 30.02 in1016.6 mb 0.00 in0.0 mm 0.00 in0.0 mm 0.00 in0.0 mm
06:41 PM 93.4°F34.1°C 37.6°F3.1°C 15% 4.0 mph ENE6.4 kmh ENE 4.7 mph7.6 kmh 30.02 in1016.6 mb 0.00 in0.0 mm 0.00 in0.0 mm 0.00 in0.0 mm
06:46 PM 92.7°F33.7°C 37.1°F2.8°C 15% 3.1 mph ENE5.0 kmh ENE 4.9 mph7.9 kmh 30.02 in1016.6 mb 0.00 in0.0 mm 0.00 in0.0 mm 0.00 in0.0 mm
06:51 PM 92.0°F33.3°C 38.3°F3.5°C 16% 2.5 mph E4.0 kmh E 4.9 mph7.9 kmh 30.02 in1016.6 mb 0.00 in0.0 mm 0.00 in0.0 mm 0.00 in0.0 mm
06:56 PM 91.4°F33.0°C 37.8°F3.2°C 16% 2.8 mph E4.5 kmh E 3.8 mph6.1 kmh 30.02 in1016.6 mb 0.00 in0.0 mm 0.00 in0.0 mm 0.00 in0.0 mm
07:02 PM 90.9°F32.7°C 37.5°F3.1°C 16% 2.8 mph NE4.5 kmh NE 3.6 mph5.8 kmh 30.02 in1016.6 mb 0.00 in0.0 mm 0.00 in0.0 mm 0.00 in0.0 mm
07:07 PM 90.4°F32.4°C 37.0°F2.8°C 16% 2.7 mph NW4.3 kmh NW 4.0 mph6.4 kmh 30.03 in1016.9 mb 0.00 in0.0 mm 0.00 in0.0 mm 0.00 in0.0 mm
07:12 PM 89.8°F32.1°C 38.3°F3.5°C 17% 15.0 mph SW24.1 kmh SW 21.5 mph34.6 kmh 30.03 in1016.9 mb 0.00 in0.0 mm 0.00 in0.0 mm 0.00 in0.0 mm
07:17 PM 90.4°F32.4°C 37.0°F2.8°C 16% 7.4 mph NNE11.9 kmh NNE 21.5 mph34.6 kmh 30.03 in1016.9 mb 0.00 in0.0 mm 0.00 in0.0 mm 0.00 in0.0 mm
07:22 PM 91.3°F32.9°C 37.7°F3.2°C 16% 5.7 mph NE9.2 kmh NE 17.4 mph28.0 kmh 30.03 in1016.9 mb 0.00 in0.0 mm 0.00 in0.0 mm 0.00 in0.0 mm
07:27 PM 91.6°F33.1°C 38.0°F3.3°C 16% 5.8 mph NNW9.3 kmh NNW 9.8 mph15.8 kmh 30.03 in1016.9 mb 0.00 in0.0 mm 0.00 in0.0 mm 0.00 in0.0 mm
07:31 PM 91.4°F33.0°C 37.8°F3.2°C 16% 10.4 mph N16.7 kmh N 12.1 mph19.5 kmh 30.03 in1016.9 mb 0.00 in0.0 mm 0.00 in0.0 mm 0.00 in0.0 mm
07:36 PM 90.7°F32.6°C 37.3°F2.9°C 16% 13.6 mph N21.9 kmh N 24.6 mph39.6 kmh 30.03 in1016.9 mb 0.00 in0.0 mm 0.00 in0.0 mm 0.00 in0.0 mm
07:41 PM 90.5°F32.5°C 37.1°F2.8°C 16% 5.3 mph NNW8.5 kmh NNW 24.6 mph39.6 kmh 30.03 in1016.9 mb 0.00 in0.0 mm 0.00 in0.0 mm 0.00 in0.0 mm
07:46 PM 90.5°F32.5°C 37.1°F2.8°C 16% 1.1 mph NW1.8 kmh NW 11.4 mph18.3 kmh 30.02 in1016.6 mb 0.00 in0.0 mm 0.00 in0.0 mm 0.00 in0.0 mm
07:51 PM 90.4°F32.4°C 37.0°F2.8°C 16% 5.8 mph ENE9.3 kmh ENE 6.3 mph10.1 kmh 30.03 in1016.9 mb 0.00 in0.0 mm 0.00 in0.0 mm 0.00 in0.0 mm
07:56 PM 89.6°F32.0°C 36.4°F2.4°C 16% 4.9 mph NE7.9 kmh NE 6.3 mph10.1 kmh 30.03 in1016.9 mb 0.00 in0.0 mm 0.00 in0.0 mm 0.00 in0.0 mm
08:02 PM 88.7°F31.5°C 35.7°F2.1°C 16% 6.2 mph NE10.0 kmh NE 6.5 mph10.5 kmh 30.02 in1016.6 mb 0.00 in0.0 mm 0.00 in0.0 mm 0.00 in0.0 mm
08:07 PM 88.0°F31.1°C 36.9°F2.7°C 17% 4.8 mph ENE7.7 kmh ENE 6.5 mph10.5 kmh 30.02 in1016.6 mb 0.00 in0.0 mm 0.00 in0.0 mm 0.00 in0.0 mm
08:12 PM 87.7°F30.9°C 36.6°F2.6°C 17% 2.9 mph NE4.7 kmh NE 6.3 mph10.1 kmh 30.03 in1016.9 mb 0.00 in0.0 mm 0.00 in0.0 mm 0.00 in0.0 mm
08:17 PM 87.3°F30.7°C 36.3°F2.4°C 17% 2.7 mph ENE4.3 kmh ENE 3.4 mph5.5 kmh 30.02 in1016.6 mb 0.00 in0.0 mm 0.00 in0.0 mm 0.00 in0.0 mm
08:22 PM 86.9°F30.5°C 36.0°F2.2°C 17% 2.3 mph ENE3.7 kmh ENE 3.4 mph5.5 kmh 30.02 in1016.6 mb 0.00 in0.0 mm 0.00 in0.0 mm 0.00 in0.0 mm
08:27 PM 86.6°F30.3°C 37.4°F3.0°C 18% 2.8 mph E4.5 kmh E 3.1 mph5.0 kmh 30.02 in1016.6 mb 0.00 in0.0 mm 0.00 in0.0 mm 0.00 in0.0 mm
08:32 PM 86.2°F30.1°C 35.4°F1.9°C 17% 2.5 mph NNW4.0 kmh NNW 3.8 mph6.1 kmh 30.02 in1016.6 mb 0.00 in0.0 mm 0.00 in0.0 mm 0.00 in0.0 mm
08:37 PM 85.5°F29.7°C 36.5°F2.5°C 18% 1.7 mph ESE2.7 kmh ESE 3.8 mph6.1 kmh 30.02 in1016.6 mb 0.00 in0.0 mm 0.00 in0.0 mm 0.00 in0.0 mm
08:42 PM 85.0°F29.4°C 36.0°F2.2°C 18% 1.2 mph SSE1.9 kmh SSE 2.5 mph4.0 kmh 30.03 in1016.9 mb 0.00 in0.0 mm 0.00 in0.0 mm 0.00 in0.0 mm
08:47 PM 84.6°F29.2°C 35.7°F2.1°C 18% 3.0 mph 4.8 kmh 3.6 mph5.8 kmh 30.03 in1016.9 mb 0.00 in0.0 mm 0.00 in0.0 mm 0.00 in0.0 mm
08:52 PM 84.2°F29.0°C 40.0°F4.4°C 21% 8.1 mph W13.0 kmh W 8.5 mph13.7 kmh 30.04 in1017.3 mb 0.00 in0.0 mm 0.00 in0.0 mm 0.00 in0.0 mm
08:57 PM 83.3°F28.5°C 39.3°F4.1°C 21% 12.0 mph WNW19.3 kmh WNW 14.3 mph23.0 kmh 30.05 in1017.6 mb 0.00 in0.0 mm 0.00 in0.0 mm 0.00 in0.0 mm
09:02 PM 84.2°F29.0°C 40.0°F4.4°C 21% 9.6 mph NW15.4 kmh NW 28.0 mph45.1 kmh 30.05 in1017.6 mb 0.00 in0.0 mm 0.00 in0.0 mm 0.00 in0.0 mm
09:07 PM 86.0°F30.0°C 36.9°F2.7°C 18% 3.7 mph NE6.0 kmh NE 28.0 mph45.1 kmh 30.03 in1016.9 mb 0.00 in0.0 mm 0.00 in0.0 mm 0.00 in0.0 mm
09:12 PM 86.8°F30.4°C 37.5°F3.1°C 18% 5.3 mph N8.5 kmh N 20.1 mph32.3 kmh 30.03 in1016.9 mb 0.00 in0.0 mm 0.00 in0.0 mm 0.00 in0.0 mm
09:17 PM 86.6°F30.3°C 39.1°F3.9°C 19% 4.2 mph ENE6.8 kmh ENE 10.3 mph16.6 kmh 30.04 in1017.3 mb 0.00 in0.0 mm 0.00 in0.0 mm 0.00 in0.0 mm
09:22 PM 85.9°F29.9°C 40.1°F4.5°C 20% 3.9 mph E6.3 kmh E 10.3 mph16.6 kmh 30.04 in1017.3 mb 0.00 in0.0 mm 0.00 in0.0 mm 0.00 in0.0 mm
09:27 PM 85.0°F29.4°C 40.5°F4.7°C 21% 3.8 mph SE6.1 kmh SE 4.7 mph7.6 kmh 30.04 in1017.3 mb 0.00 in0.0 mm 0.00 in0.0 mm 0.00 in0.0 mm
09:32 PM 84.4°F29.1°C 40.1°F4.5°C 21% 6.2 mph ESE10.0 kmh ESE 6.5 mph10.5 kmh 30.04 in1017.3 mb 0.00 in0.0 mm 0.00 in0.0 mm 0.00 in0.0 mm
09:37 PM 83.9°F28.8°C 39.7°F4.3°C 21% 6.7 mph SE10.8 kmh SE 9.2 mph14.8 kmh 30.04 in1017.3 mb 0.00 in0.0 mm 0.00 in0.0 mm 0.00 in0.0 mm
09:42 PM 83.5°F28.6°C 40.4°F4.7°C 22% 3.8 mph ESE6.1 kmh ESE 9.2 mph14.8 kmh 30.04 in1017.3 mb 0.00 in0.0 mm 0.00 in0.0 mm 0.00 in0.0 mm
09:47 PM 83.2°F28.4°C 40.2°F4.6°C 22% 4.6 mph SSE7.4 kmh SSE 6.9 mph11.1 kmh 30.05 in1017.6 mb 0.00 in0.0 mm 0.00 in0.0 mm 0.00 in0.0 mm
09:52 PM 82.6°F28.1°C 40.7°F4.8°C 23% 7.6 mph SE12.2 kmh SE 8.7 mph14.0 kmh 30.05 in1017.6 mb 0.00 in0.0 mm 0.00 in0.0 mm 0.00 in0.0 mm
09:57 PM 82.1°F27.8°C 40.3°F4.6°C 23% 7.9 mph ESE12.7 kmh ESE 8.7 mph14.0 kmh 30.05 in1017.6 mb 0.00 in0.0 mm 0.00 in0.0 mm 0.00 in0.0 mm
10:02 PM 81.7°F27.6°C 41.0°F5.0°C 24% 3.8 mph ESE6.1 kmh ESE 8.7 mph14.0 kmh 30.05 in1017.6 mb 0.00 in0.0 mm 0.00 in0.0 mm 0.00 in0.0 mm
10:07 PM 81.4°F27.4°C 40.8°F4.9°C 24% 1.6 mph E2.6 kmh E 8.1 mph13.0 kmh 30.05 in1017.6 mb 0.00 in0.0 mm 0.00 in0.0 mm 0.00 in0.0 mm
10:12 PM 81.0°F27.2°C 40.5°F4.7°C 24% 3.6 mph E5.8 kmh E 3.8 mph6.1 kmh 30.05 in1017.6 mb 0.00 in0.0 mm 0.00 in0.0 mm 0.00 in0.0 mm
10:17 PM 80.6°F27.0°C 40.1°F4.5°C 24% 2.6 mph SE4.2 kmh SE 3.8 mph6.1 kmh 30.05 in1017.6 mb 0.00 in0.0 mm 0.00 in0.0 mm 0.00 in0.0 mm
10:22 PM 80.1°F26.7°C 39.7°F4.3°C 24% 0.6 mph ENE1.0 kmh ENE 2.7 mph4.3 kmh 30.05 in1017.6 mb 0.00 in0.0 mm 0.00 in0.0 mm 0.00 in0.0 mm
10:27 PM 79.6°F26.4°C 40.2°F4.6°C 25% 2.1 mph NW3.4 kmh NW 2.5 mph4.0 kmh 30.05 in1017.6 mb 0.00 in0.0 mm 0.00 in0.0 mm 0.00 in0.0 mm
10:32 PM 79.4°F26.3°C 40.1°F4.5°C 25% 1.3 mph WSW2.1 kmh WSW 2.5 mph4.0 kmh 30.05 in1017.6 mb 0.00 in0.0 mm 0.00 in0.0 mm 0.00 in0.0 mm
10:37 PM 78.8°F26.0°C 39.6°F4.2°C 25% 1.4 mph ENE2.3 kmh ENE 3.6 mph5.8 kmh 30.05 in1017.6 mb 0.00 in0.0 mm 0.00 in0.0 mm 0.00 in0.0 mm
10:42 PM 78.7°F25.9°C 39.4°F4.1°C 25% 1.7 mph N2.7 kmh N 3.6 mph5.8 kmh 30.05 in1017.6 mb 0.00 in0.0 mm 0.00 in0.0 mm 0.00 in0.0 mm
10:47 PM 78.5°F25.8°C 40.3°F4.6°C 26% 2.0 mph ESE3.2 kmh ESE 2.5 mph4.0 kmh 30.06 in1017.9 mb 0.00 in0.0 mm 0.00 in0.0 mm 0.00 in0.0 mm
10:52 PM 78.1°F25.6°C 40.1°F4.5°C 26% 1.4 mph SSE2.3 kmh SSE 2.5 mph4.0 kmh 30.06 in1017.9 mb 0.00 in0.0 mm 0.00 in0.0 mm 0.00 in0.0 mm
10:57 PM 77.8°F25.4°C 39.8°F4.3°C 26% 3.2 mph SW5.1 kmh SW 3.8 mph6.1 kmh 30.06 in1017.9 mb 0.00 in0.0 mm 0.00 in0.0 mm 0.00 in0.0 mm
11:03 PM 77.6°F25.3°C 40.7°F4.8°C 27% 4.4 mph SW7.1 kmh SW 4.9 mph7.9 kmh 30.06 in1017.9 mb 0.00 in0.0 mm 0.00 in0.0 mm 0.00 in0.0 mm
11:08 PM 77.4°F25.2°C 41.6°F5.3°C 28% 4.3 mph SSW6.9 kmh SSW 4.9 mph7.9 kmh 30.06 in1017.9 mb 0.00 in0.0 mm 0.00 in0.0 mm 0.00 in0.0 mm
11:13 PM 77.4°F25.2°C 42.7°F5.9°C 29% 3.8 mph SW6.1 kmh SW 5.4 mph8.7 kmh 30.06 in1017.9 mb 0.00 in0.0 mm 0.00 in0.0 mm 0.00 in0.0 mm
11:18 PM 77.0°F25.0°C 42.3°F5.7°C 29% 3.4 mph S5.5 kmh S 5.4 mph8.7 kmh 30.06 in1017.9 mb 0.00 in0.0 mm 0.00 in0.0 mm 0.00 in0.0 mm
11:23 PM 77.0°F25.0°C 41.3°F5.2°C 28% 4.6 mph SE7.4 kmh SE 5.1 mph8.2 kmh 30.05 in1017.6 mb 0.00 in0.0 mm 0.00 in0.0 mm 0.00 in0.0 mm
11:28 PM 77.0°F25.0°C 42.3°F5.7°C 29% 5.6 mph SSE9.0 kmh SSE 6.3 mph10.1 kmh 30.05 in1017.6 mb 0.00 in0.0 mm 0.00 in0.0 mm 0.00 in0.0 mm
11:32 PM 77.0°F25.0°C 42.3°F5.7°C 29% 6.1 mph SW9.8 kmh SW 6.9 mph11.1 kmh 30.06 in1017.9 mb 0.00 in0.0 mm 0.00 in0.0 mm 0.00 in0.0 mm
11:37 PM 77.8°F25.4°C 41.9°F5.5°C 28% 8.1 mph WSW13.0 kmh WSW 8.5 mph13.7 kmh 30.06 in1017.9 mb 0.00 in0.0 mm 0.00 in0.0 mm 0.00 in0.0 mm
11:42 PM 78.3°F25.7°C 42.3°F5.7°C 28% 5.4 mph SW8.7 kmh SW 8.5 mph13.7 kmh 30.06 in1017.9 mb 0.00 in0.0 mm 0.00 in0.0 mm 0.00 in0.0 mm
11:47 PM 78.5°F25.8°C 42.5°F5.8°C 28% 9.6 mph SW15.4 kmh SW 9.8 mph15.8 kmh 30.07 in1018.3 mb 0.00 in0.0 mm 0.00 in0.0 mm 0.00 in0.0 mm
11:52 PM 78.8°F26.0°C 42.8°F6.0°C 28% 7.4 mph SW11.9 kmh SW 9.8 mph15.8 kmh 30.07 in1018.3 mb 0.00 in0.0 mm 0.00 in0.0 mm 0.00 in0.0 mm
11:57 PM 79.0°F26.1°C 40.8°F4.9°C 26% 6.5 mph SW10.5 kmh SW 9.2 mph14.8 kmh 30.07 in1018.3 mb 0.00 in0.0 mm 0.00 in0.0 mm 0.00 in0.0 mm